createdAt,value
2023-02-07T00:04:23.817Z,4.00
2023-02-07T00:10:25.704Z,3.40
2023-02-07T00:16:28.499Z,3.47
2023-02-07T00:22:30.522Z,3.47
2023-02-07T00:28:32.768Z,6.10
2023-02-07T00:34:36.249Z,6.47
2023-02-07T00:40:38.201Z,7.23
2023-02-07T00:46:40.217Z,7.83
2023-02-07T00:52:42.145Z,8.40
2023-02-07T00:58:44.095Z,8.60
2023-02-07T01:04:46.185Z,8.77
2023-02-07T01:10:48.799Z,9.87
2023-02-07T01:16:50.796Z,9.73
2023-02-07T01:22:52.687Z,10.20
2023-02-07T01:28:56.322Z,10.33
2023-02-07T01:34:58.209Z,9.80
2023-02-07T01:41:00.171Z,10.47
2023-02-07T01:47:02.484Z,9.00
2023-02-07T01:53:06.850Z,8.07
2023-02-07T01:59:08.794Z,8.73
2023-02-07T02:05:11.694Z,8.33
2023-02-07T02:11:50.309Z,7.47
2023-02-07T02:18:35.460Z,7.90
2023-02-07T02:25:16.439Z,8.33
2023-02-07T02:32:20.336Z,7.73
2023-02-07T02:39:03.523Z,8.27
2023-02-07T02:45:24.095Z,8.53
2023-02-07T02:51:32.279Z,9.57
2023-02-07T02:58:00.415Z,8.50
2023-02-07T03:04:28.357Z,9.90
2023-02-07T03:10:38.802Z,9.57
2023-02-07T03:17:01.817Z,9.20
2023-02-07T03:23:06.584Z,10.80
2023-02-07T03:29:10.201Z,12.20
2023-02-07T03:35:35.557Z,12.90
2023-02-07T03:41:52.895Z,10.63
2023-02-07T03:47:54.766Z,10.97
2023-02-07T03:53:56.681Z,12.07
2023-02-07T03:59:58.881Z,11.87
2023-02-07T04:06:00.763Z,12.40
2023-02-07T04:12:02.837Z,11.57
2023-02-07T04:18:04.906Z,14.00
2023-02-07T04:24:07.090Z,13.00
2023-02-07T04:30:10.178Z,12.47
2023-02-07T04:36:12.108Z,14.27
2023-02-07T04:42:14.116Z,13.70
2023-02-07T04:48:16.049Z,13.23
2023-02-07T04:54:17.997Z,13.47
2023-02-07T05:00:20.112Z,13.90
2023-02-07T05:06:22.005Z,14.07
2023-02-07T05:12:23.945Z,11.90
2023-02-07T05:18:25.863Z,12.57
2023-02-07T05:24:27.872Z,12.97
2023-02-07T05:30:30.030Z,13.90
2023-02-07T05:36:32.005Z,15.90
2023-02-07T05:42:33.926Z,15.80
2023-02-07T05:48:35.809Z,15.10
2023-02-07T05:54:37.742Z,14.30
2023-02-07T06:00:39.667Z,14.40
2023-02-07T06:06:43.811Z,14.57
2023-02-07T06:12:46.005Z,15.73
2023-02-07T06:18:47.896Z,18.60
2023-02-07T06:24:49.902Z,17.87
2023-02-07T06:30:53.412Z,16.40
2023-02-07T06:36:55.375Z,17.13
2023-02-07T06:42:57.264Z,16.20
2023-02-07T06:48:59.219Z,17.40
2023-02-07T06:55:01.187Z,18.20
2023-02-07T07:01:04.920Z,18.23
2023-02-07T07:07:07.087Z,16.77
2023-02-07T07:13:09.092Z,18.23
2023-02-07T07:19:11.073Z,16.70
2023-02-07T07:25:13.004Z,17.33
2023-02-07T07:31:15.604Z,16.03
2023-02-07T07:37:17.583Z,16.60
2023-02-07T07:43:20.311Z,17.57
2023-02-07T07:49:22.239Z,17.10
2023-02-07T07:55:24.175Z,20.33
2023-02-07T08:01:26.121Z,21.87
2023-02-07T08:07:28.023Z,18.83
2023-02-07T08:13:33.070Z,17.97
2023-02-07T08:19:35.247Z,20.10
2023-02-07T08:25:37.435Z,19.93
2023-02-07T08:31:39.447Z,21.90
2023-02-07T08:37:41.415Z,20.37
2023-02-07T08:43:43.449Z,22.30
2023-02-07T08:49:45.381Z,37.47
2023-02-07T08:55:47.669Z,24.30
2023-02-07T09:01:49.613Z,19.63
2023-02-07T09:07:51.557Z,19.60
2023-02-07T09:13:53.482Z,20.30
2023-02-07T09:19:55.486Z,20.37
2023-02-07T09:26:02.917Z,19.40
2023-02-07T09:32:05.171Z,16.87
2023-02-07T09:38:12.221Z,16.60
2023-02-07T09:44:15.926Z,16.87
2023-02-07T09:50:28.765Z,15.20
2023-02-07T09:56:32.745Z,13.67
2023-02-07T10:02:42.034Z,14.20
2023-02-07T10:08:46.700Z,13.77
2023-02-07T10:15:03.773Z,13.70
2023-02-07T10:21:39.109Z,12.87
2023-02-07T10:28:36.859Z,13.47
2023-02-07T10:34:44.625Z,13.67
2023-02-07T10:41:01.166Z,12.70
2023-02-07T10:47:07.149Z,13.33
2023-02-07T10:53:09.253Z,12.80
2023-02-07T10:59:38.656Z,12.43
2023-02-07T11:06:02.604Z,12.73
2023-02-07T11:12:22.720Z,12.87
2023-02-07T11:18:47.126Z,11.80
2023-02-07T11:24:53.688Z,11.27
2023-02-07T11:31:07.687Z,11.80
2023-02-07T11:37:35.254Z,12.57
2023-02-07T11:43:37.145Z,12.37
2023-02-07T11:49:46.797Z,10.80
2023-02-07T11:55:48.956Z,9.03
2023-02-07T12:02:24.937Z,9.57
2023-02-07T12:08:33.154Z,10.13
2023-02-07T12:14:47.046Z,9.20
2023-02-07T12:21:15.539Z,10.03
2023-02-07T12:27:19.655Z,11.50
2023-02-07T12:33:31.370Z,9.40
2023-02-07T12:39:48.985Z,8.97
2023-02-07T12:46:02.960Z,8.70
2023-02-07T12:52:39.706Z,9.40
2023-02-07T12:59:20.344Z,9.30
2023-02-07T13:05:52.835Z,9.73
2023-02-07T13:12:23.610Z,10.00
2023-02-07T13:18:46.714Z,9.87
2023-02-07T13:24:49.449Z,10.93
2023-02-07T13:30:53.529Z,9.00
2023-02-07T13:36:58.726Z,10.03
2023-02-07T13:43:35.348Z,9.70
2023-02-07T13:49:54.421Z,10.60
2023-02-07T13:56:03.843Z,10.10
2023-02-07T14:02:44.951Z,9.30
2023-02-07T14:09:22.566Z,9.33
2023-02-07T14:15:36.438Z,8.93
2023-02-07T14:21:41.886Z,9.70
2023-02-07T14:28:17.513Z,11.30
2023-02-07T14:34:21.882Z,10.63
2023-02-07T14:41:09.464Z,10.50
2023-02-07T14:47:27.853Z,11.50
2023-02-07T14:53:31.821Z,10.57
2023-02-07T14:59:39.294Z,9.40
2023-02-07T15:06:01.338Z,9.03
2023-02-07T15:12:22.308Z,12.83
2023-02-07T15:18:33.579Z,10.10
2023-02-07T15:24:51.054Z,9.70
2023-02-07T15:31:17.517Z,10.30
2023-02-07T15:37:24.621Z,9.77
2023-02-07T15:43:34.862Z,10.20
2023-02-07T15:49:42.326Z,11.60
2023-02-07T15:55:48.851Z,10.47
2023-02-07T16:01:57.209Z,10.93
2023-02-07T16:08:01.640Z,11.30
2023-02-07T16:14:12.488Z,10.23
2023-02-07T16:20:15.626Z,12.57
2023-02-07T16:26:26.199Z,11.60
2023-02-07T16:32:33.317Z,12.10
2023-02-07T16:38:35.220Z,12.10
2023-02-07T16:44:37.540Z,10.30
2023-02-07T16:50:40.154Z,10.47
2023-02-07T16:56:45.064Z,11.40
2023-02-07T17:02:48.555Z,10.40
2023-02-07T17:08:53.885Z,9.20
2023-02-07T17:14:55.768Z,8.87
2023-02-07T17:20:57.721Z,8.10
2023-02-07T17:26:59.946Z,8.83
2023-02-07T17:33:01.954Z,8.23
2023-02-07T17:39:04.142Z,9.20
2023-02-07T17:45:06.388Z,8.20
2023-02-07T17:51:08.303Z,8.87
2023-02-07T17:57:13.375Z,8.80
2023-02-07T18:03:16.079Z,9.00
2023-02-07T18:09:19.534Z,10.10
2023-02-07T18:15:22.001Z,8.90
2023-02-07T18:21:24.549Z,9.47
2023-02-07T18:27:26.467Z,9.40
2023-02-07T18:33:28.611Z,11.40
2023-02-07T18:39:30.928Z,11.70
2023-02-07T18:45:33.589Z,12.70
2023-02-07T18:51:37.286Z,12.60
2023-02-07T18:57:39.311Z,13.93
2023-02-07T19:03:41.305Z,11.93
2023-02-07T19:09:43.358Z,13.90
2023-02-07T19:15:45.276Z,14.40
2023-02-07T19:21:47.202Z,13.93
2023-02-07T19:27:49.141Z,15.17
2023-02-07T19:33:52.010Z,14.60
2023-02-07T19:39:56.220Z,15.47
2023-02-07T19:45:59.379Z,14.97
2023-02-07T19:52:01.301Z,16.33
2023-02-07T19:58:03.224Z,13.90
2023-02-07T20:04:05.931Z,16.23
2023-02-07T20:10:10.318Z,15.93
2023-02-07T20:16:16.578Z,16.83
2023-02-07T20:22:18.549Z,15.83
2023-02-07T20:28:21.732Z,18.17
2023-02-07T20:34:23.669Z,20.37
2023-02-07T20:40:25.561Z,18.63
2023-02-07T20:46:29.209Z,21.30
2023-02-07T20:52:31.308Z,19.27
2023-02-07T20:58:34.112Z,20.80
2023-02-07T21:04:37.463Z,18.07
2023-02-07T21:10:39.589Z,20.17
2023-02-07T21:16:42.160Z,23.43
2023-02-07T21:22:44.823Z,20.60
2023-02-07T21:28:47.282Z,21.20
2023-02-07T21:34:49.170Z,20.73
2023-02-07T21:40:51.301Z,21.40
2023-02-07T21:46:54.502Z,22.20
2023-02-07T21:52:56.395Z,21.37
2023-02-07T21:59:02.244Z,22.63
2023-02-07T22:05:04.290Z,21.10
2023-02-07T22:11:11.099Z,20.27
2023-02-07T22:17:13.000Z,20.73
2023-02-07T22:23:14.896Z,20.00
2023-02-07T22:29:16.787Z,18.53
2023-02-07T22:35:18.692Z,22.27
2023-02-07T22:41:36.326Z,21.90
2023-02-07T22:47:38.208Z,21.27
2023-02-07T22:53:41.171Z,20.97
2023-02-07T22:59:43.082Z,19.37
2023-02-07T23:05:45.044Z,20.53
2023-02-07T23:11:47.016Z,19.70
2023-02-07T23:17:49.197Z,19.67
2023-02-07T23:23:51.156Z,18.27
2023-02-07T23:29:53.077Z,18.80
2023-02-07T23:35:54.989Z,21.00
2023-02-07T23:41:58.284Z,18.30
2023-02-07T23:48:02.300Z,20.33
2023-02-07T23:54:04.344Z,20.37
